Time;durP1;ratioP1;P1;durP2;ratioP2;P2;SDS_P1;SDS_P2;PMS_P1;PMS_P2;Temp;Humidity;BMP_temperature;BMP_pressure;BME280_temperature;BME280_humidity;BME280_pressure;Samples;Min_cycle;Max_cycle;Signal;HPM_P1;HPM_P2
2023/10/14 00:00:52;;;;;;;7.10;5.57;;;19.00;99.90;;;;;;5223511;28;20436;-48
2023/10/14 00:03:32;;;;;;;8.27;5.50;;;19.00;99.90;;;;;;5244386;28;20803;-49
2023/10/14 00:06:07;;;;;;;10.60;5.50;;;19.10;99.90;;;;;;5207728;28;21025;-49
2023/10/14 00:08:57;;;;;;;11.40;6.00;;;18.90;99.90;;;;;;5241373;28;20428;-49
2023/10/14 00:12:15;;;;;;;24.77;5.27;;;19.00;99.90;;;;;;5246398;28;20463;-49
2023/10/14 00:14:23;;;;;;;11.33;5.93;;;18.90;99.90;;;;;;5231247;28;20447;-50
2023/10/14 00:16:53;;;;;;;12.80;5.80;;;18.70;99.90;;;;;;5242428;28;20456;-49
2023/10/14 00:19:24;;;;;;;7.37;5.80;;;18.60;99.90;;;;;;5245220;28;20797;-48
2023/10/14 00:21:55;;;;;;;17.77;4.53;;;18.30;99.90;;;;;;5224415;28;20187;-49
2023/10/14 00:24:26;;;;;;;5.63;4.10;;;18.40;99.90;;;;;;5228090;28;20618;-48
2023/10/14 00:26:57;;;;;;;7.93;5.20;;;18.40;99.90;;;;;;5244096;28;20213;-50
2023/10/14 00:29:29;;;;;;;5.20;4.70;;;18.20;99.90;;;;;;5245069;28;20238;-49
2023/10/14 00:32:02;;;;;;;7.63;4.53;;;18.10;99.90;;;;;;5247383;28;20482;-50
2023/10/14 00:34:33;;;;;;;6.60;4.77;;;18.20;99.90;;;;;;5244139;28;20433;-49
2023/10/14 00:37:07;;;;;;;6.97;4.50;;;18.00;99.90;;;;;;5230091;28;20527;-50
2023/10/14 00:39:38;;;;;;;12.23;3.97;;;18.00;99.90;;;;;;5246470;28;20215;-50
2023/10/14 00:42:09;;;;;;;7.13;4.50;;;17.90;99.90;;;;;;5244982;28;20463;-47
2023/10/14 00:44:40;;;;;;;13.30;4.40;;;17.90;99.90;;;;;;5227689;28;20281;-48
2023/10/14 00:47:15;;;;;;;7.30;4.20;;;18.10;99.90;;;;;;5227936;28;20221;-48
2023/10/14 00:49:46;;;;;;;10.23;3.60;;;18.30;99.90;;;;;;5246296;28;20669;-49
2023/10/14 00:52:22;;;;;;;7.43;4.50;;;18.20;99.90;;;;;;5209666;28;20464;-50
2023/10/14 00:57:37;;;;;;;8.90;4.53;;;18.40;99.90;;;;;;5248639;28;20452;-50
2023/10/14 01:00:10;;;;;;;8.93;4.33;;;18.50;99.90;;;;;;5228726;28;20436;-50
2023/10/14 01:02:42;;;;;;;8.70;4.10;;;18.50;99.90;;;;;;5247898;28;20472;-50
2023/10/14 01:05:19;;;;;;;11.73;4.50;;;18.60;99.90;;;;;;5248178;28;20920;-49
2023/10/14 01:07:50;;;;;;;6.10;4.07;;;18.70;99.90;;;;;;5230117;28;20432;-49
2023/10/14 01:10:30;;;;;;;13.30;4.00;;;18.70;99.90;;;;;;5245726;28;20440;-49
2023/10/14 01:13:06;;;;;;;5.90;3.83;;;18.80;99.90;;;;;;5213127;28;20189;-49
2023/10/14 01:15:42;;;;;;;13.43;4.37;;;18.80;99.90;;;;;;5246448;28;20487;-48
2023/10/14 01:18:14;;;;;;;6.27;3.70;;;18.80;99.90;;;;;;5232515;28;20501;-50
2023/10/14 01:20:46;;;;;;;4.27;3.90;;;18.80;99.90;;;;;;5229379;28;20523;-51
2023/10/14 01:23:17;;;;;;;31.17;4.80;;;18.90;99.90;;;;;;5226574;28;20556;-50
2023/10/14 01:25:48;;;;;;;7.13;4.27;;;19.00;99.90;;;;;;5226117;28;20552;-49
2023/10/14 01:28:23;;;;;;;7.83;4.27;;;18.90;99.90;;;;;;5248976;28;20445;-49
2023/10/14 01:31:31;;;;;;;5.63;3.83;;;18.90;99.90;;;;;;5224206;28;20206;-50
2023/10/14 01:34:04;;;;;;;10.37;4.57;;;18.90;99.90;;;;;;5245681;28;20944;-50
2023/10/14 01:36:40;;;;;;;10.23;4.20;;;18.90;99.90;;;;;;5227190;28;20491;-50
2023/10/14 01:39:20;;;;;;;9.10;4.60;;;19.10;99.90;;;;;;5248563;28;20440;-50
2023/10/14 01:41:53;;;;;;;5.70;3.57;;;19.10;99.90;;;;;;5230621;28;20436;-50
2023/10/14 01:44:25;;;;;;;5.27;3.83;;;19.10;99.90;;;;;;5232245;28;20516;-49
2023/10/14 01:46:56;;;;;;;8.37;4.97;;;19.10;99.90;;;;;;5229821;28;20517;-49
2023/10/14 01:49:27;;;;;;;5.50;4.23;;;19.00;99.90;;;;;;5247719;28;20437;-49
2023/10/14 01:51:59;;;;;;;5.37;3.73;;;19.00;99.90;;;;;;5229314;28;20577;-48
2023/10/14 01:54:31;;;;;;;6.53;4.20;;;18.80;99.90;;;;;;5248451;28;20623;-48
2023/10/14 01:57:05;;;;;;;8.07;3.67;;;18.80;99.90;;;;;;5247281;28;20923;-50
2023/10/14 01:59:37;;;;;;;6.90;4.50;;;18.70;99.90;;;;;;5231579;28;20428;-50
2023/10/14 02:02:09;;;;;;;6.50;4.33;;;18.50;99.90;;;;;;5244547;28;21030;-49
2023/10/14 02:04:43;;;;;;;11.73;5.40;;;18.40;99.90;;;;;;5231339;28;20439;-48
2023/10/14 02:07:21;;;;;;;6.10;4.30;;;18.40;99.90;;;;;;5226383;28;20457;-49
2023/10/14 02:09:55;;;;;;;7.90;4.23;;;18.40;99.90;;;;;;5225133;28;20436;-50
2023/10/14 02:12:26;;;;;;;6.27;4.20;;;18.40;99.90;;;;;;5242819;28;21418;-49
2023/10/14 02:15:08;;;;;;;;;;;;;;;;;;;;;
2023/10/14 02:17:39;;;;;;;8.13;5.00;;;18.30;99.90;;;;;;5241582;28;20630;-48
2023/10/14 02:20:20;;;;;;;11.17;4.93;;;18.30;99.90;;;;;;5230993;28;20439;-49
2023/10/14 02:22:50;;;;;;;9.50;4.13;;;18.30;99.90;;;;;;5247143;28;20432;-49
2023/10/14 02:25:22;;;;;;;8.70;3.70;;;18.30;99.90;;;;;;5227102;28;20528;-49
2023/10/14 02:27:54;;;;;;;7.77;4.57;;;18.10;99.90;;;;;;5227836;28;20195;-50
2023/10/14 02:30:24;;;;;;;9.30;3.93;;;18.00;99.90;;;;;;5228908;28;20440;-50
2023/10/14 02:32:57;;;;;;;8.30;3.87;;;18.00;99.90;;;;;;5248015;28;20455;-49
2023/10/14 02:35:28;;;;;;;3.87;3.57;;;18.00;99.90;;;;;;5247312;28;20289;-49
2023/10/14 02:38:00;;;;;;;12.63;4.13;;;18.00;99.90;;;;;;5246031;28;20519;-48
2023/10/14 02:40:31;;;;;;;7.33;4.97;;;18.00;99.90;;;;;;5244275;28;20241;-48
2023/10/14 02:43:02;;;;;;;12.10;4.50;;;18.00;99.90;;;;;;5229746;28;20432;-48
2023/10/14 02:45:37;;;;;;;8.47;3.60;;;18.10;99.90;;;;;;5228641;28;20214;-49
2023/10/14 02:48:11;;;;;;;5.43;3.80;;;18.10;99.90;;;;;;5226710;28;20228;-49
2023/10/14 02:50:50;;;;;;;8.10;3.97;;;18.00;99.90;;;;;;5230200;28;20482;-49
2023/10/14 02:53:27;;;;;;;6.50;3.30;;;18.10;99.90;;;;;;5248667;28;20798;-50
2023/10/14 02:56:04;;;;;;;9.10;4.43;;;18.20;99.90;;;;;;5225637;28;20698;-49
2023/10/14 02:58:35;;;;;;;6.50;4.20;;;18.10;99.90;;;;;;5226224;28;20975;-49
2023/10/14 03:01:12;;;;;;;5.37;3.27;;;18.20;99.90;;;;;;5245165;28;20528;-49
2023/10/14 03:03:46;;;;;;;4.30;3.90;;;18.10;99.90;;;;;;5226552;28;20232;-50
2023/10/14 03:06:18;;;;;;;12.50;4.63;;;18.10;99.90;;;;;;5246103;28;20452;-49
2023/10/14 03:08:58;;;;;;;5.40;3.70;;;18.10;99.90;;;;;;5226922;28;20520;-50
2023/10/14 03:11:31;;;;;;;9.00;4.33;;;18.10;99.90;;;;;;5244453;28;20479;-50
2023/10/14 03:14:02;;;;;;;9.20;4.10;;;18.00;99.90;;;;;;5228140;28;20440;-51
2023/10/14 03:16:35;;;;;;;4.90;4.40;;;18.00;99.90;;;;;;5243424;28;20472;-48
2023/10/14 03:19:06;;;;;;;7.47;3.60;;;18.00;99.90;;;;;;5244626;28;20483;-49
2023/10/14 03:21:48;;;;;;;9.67;4.00;;;18.10;99.90;;;;;;5246209;28;20436;-50
2023/10/14 03:24:18;;;;;;;3.83;3.50;;;18.10;99.90;;;;;;5227806;28;20440;-49
2023/10/14 03:26:56;;;;;;;7.30;3.50;;;18.30;99.90;;;;;;5239849;28;20874;-49
2023/10/14 03:29:30;;;;;;;4.53;3.80;;;18.40;99.90;;;;;;5221405;28;20187;-49
2023/10/14 03:32:02;;;;;;;7.90;4.07;;;18.50;99.90;;;;;;5242824;28;20468;-50
2023/10/14 03:34:41;;;;;;;14.60;3.90;;;18.60;99.90;;;;;;5228073;28;20441;-50
2023/10/14 03:37:25;;;;;;;12.47;4.37;;;18.70;99.90;;;;;;5240636;28;20459;-50
2023/10/14 03:42:52;;;;;;;12.90;3.07;;;18.90;99.90;;;;;;5244763;28;20439;-49
2023/10/14 03:45:28;;;;;;;8.03;4.60;;;19.10;99.90;;;;;;5243901;28;20462;-49
2023/10/14 03:48:08;;;;;;;5.23;3.27;;;19.10;99.90;;;;;;5243449;28;20502;-49
2023/10/14 03:50:40;;;;;;;3.50;3.20;;;19.10;99.90;;;;;;5245881;28;20467;-49
2023/10/14 03:53:14;;;;;;;14.10;3.97;;;19.10;99.90;;;;;;5230519;28;20436;-49
2023/10/14 03:55:45;;;;;;;6.53;3.97;;;19.20;99.90;;;;;;5245204;28;20449;-49
2023/10/14 03:58:16;;;;;;;6.20;3.80;;;19.10;99.90;;;;;;5243741;28;20415;-49
2023/10/14 04:00:48;;;;;;;11.80;4.13;;;19.10;99.90;;;;;;5221801;28;20804;-50
2023/10/14 04:06:09;;;;;;;9.60;4.20;;;19.10;99.90;;;;;;5246953;28;20537;-50
2023/10/14 04:08:47;;;;;;;14.13;4.67;;;19.10;99.90;;;;;;5246623;28;20478;-50
2023/10/14 04:11:25;;;;;;;10.10;4.57;;;19.10;99.90;;;;;;5224642;28;20464;-49
2023/10/14 04:14:02;;;;;;;7.50;4.20;;;19.20;99.90;;;;;;5244403;28;20439;-48
2023/10/14 04:19:37;;;;;;;6.57;4.30;;;19.10;99.90;;;;;;5243264;28;20479;-50
2023/10/14 04:22:27;;;;;;;6.77;4.53;;;19.20;99.90;;;;;;5246058;28;20985;-52
2023/10/14 04:35:33;;;;;;;12.70;4.80;;;19.10;99.90;;;;;;5248289;28;20812;-50
2023/10/14 04:38:16;;;;;;;6.70;4.53;;;19.10;99.90;;;;;;5251768;28;20178;-49
2023/10/14 04:40:53;;;;;;;9.73;5.07;;;19.10;99.90;;;;;;5216335;28;20521;-48
2023/10/14 04:46:13;;;;;;;12.70;4.53;;;19.20;99.90;;;;;;5250582;28;20468;-49
2023/10/14 04:48:51;;;;;;;4.17;3.80;;;19.20;99.90;;;;;;5232009;28;20519;-50
2023/10/14 04:51:30;;;;;;;7.23;3.80;;;19.30;99.90;;;;;;5235090;28;20456;-50
2023/10/14 04:54:09;;;;;;;6.50;4.17;;;19.20;99.90;;;;;;5230705;28;20436;-49
2023/10/14 04:56:41;;;;;;;3.90;3.50;;;19.30;99.90;;;;;;5246701;28;20447;-49
2023/10/14 04:59:13;;;;;;;6.30;4.37;;;19.20;99.90;;;;;;5233470;28;20437;-50
2023/10/14 05:01:43;;;;;;;10.83;5.50;;;19.00;99.90;;;;;;5232983;28;20432;-49
2023/10/14 05:04:19;;;;;;;10.23;4.67;;;18.90;99.90;;;;;;5249110;28;20466;-50
2023/10/14 05:06:52;;;;;;;11.93;4.90;;;18.70;99.90;;;;;;5248856;28;20228;-50
2023/10/14 05:09:39;;;;;;;7.63;5.20;;;18.50;99.90;;;;;;5232005;28;20434;-49
2023/10/14 05:12:14;;;;;;;7.60;4.90;;;18.30;99.90;;;;;;5247641;28;20468;-50
2023/10/14 05:14:45;;;;;;;9.97;5.90;;;18.00;99.90;;;;;;5250980;28;20758;-50
2023/10/14 05:17:16;;;;;;;6.77;4.87;;;17.80;99.90;;;;;;5243139;28;20445;-50
2023/10/14 05:19:54;;;;;;;13.63;5.33;;;17.60;99.90;;;;;;5228967;28;20178;-51
2023/10/14 05:22:37;;;;;;;8.20;4.83;;;17.50;99.90;;;;;;5243709;28;20444;-50
2023/10/14 05:25:15;;;;;;;7.20;4.80;;;17.30;99.90;;;;;;5250410;28;20550;-50
2023/10/14 05:27:46;;;;;;;10.93;4.43;;;17.20;99.90;;;;;;5227320;28;20528;-51
2023/10/14 05:30:21;;;;;;;9.27;3.73;;;17.00;99.90;;;;;;5246606;28;20531;-51
2023/10/14 05:32:52;;;;;;;9.20;4.03;;;17.00;99.90;;;;;;5245506;28;20197;-51
2023/10/14 05:35:24;;;;;;;10.03;3.73;;;16.90;99.90;;;;;;5228395;28;20429;-51
2023/10/14 05:37:55;;;;;;;4.87;3.50;;;16.80;99.90;;;;;;5248360;28;20433;-50
2023/10/14 05:40:25;;;;;;;10.13;3.43;;;16.70;99.90;;;;;;5235460;28;20775;-51
2023/10/14 05:42:56;;;;;;;5.83;3.40;;;16.60;99.90;;;;;;5218815;28;20189;-51
2023/10/14 05:45:27;;;;;;;3.90;2.50;;;16.50;99.90;;;;;;5225931;28;20240;-49
2023/10/14 05:47:57;;;;;;;1.90;1.37;;;16.30;99.90;;;;;;5248248;28;20673;-50
2023/10/14 05:50:28;;;;;;;1.10;1.00;;;16.10;99.90;;;;;;5247532;28;20205;-52
2023/10/14 05:53:00;;;;;;;0.80;0.80;;;15.80;99.90;;;;;;5247119;28;20187;-50
2023/10/14 05:55:30;;;;;;;1.10;1.10;;;15.40;99.90;;;;;;5249424;28;20202;-51
2023/10/14 05:58:01;;;;;;;1.10;1.03;;;15.20;99.90;;;;;;5229906;28;20427;-49
2023/10/14 06:00:34;;;;;;;1.33;0.80;;;15.00;99.90;;;;;;5250216;28;20190;-50
2023/10/14 06:03:11;;;;;;;0.70;0.70;;;14.90;99.90;;;;;;5248990;28;20185;-50
2023/10/14 06:05:42;;;;;;;1.00;0.57;;;14.70;99.90;;;;;;5247333;28;20456;-49
2023/10/14 06:08:18;;;;;;;0.70;0.70;;;14.50;99.90;;;;;;5226273;28;20432;-50
2023/10/14 06:10:49;;;;;;;0.60;0.60;;;14.40;99.90;;;;;;5241755;28;20503;-49
2023/10/14 06:13:20;;;;;;;0.53;0.53;;;14.40;99.90;;;;;;5219492;28;20479;-50
2023/10/14 06:15:50;;;;;;;0.83;0.57;;;14.30;99.90;;;;;;5223700;28;20666;-50
2023/10/14 06:18:21;;;;;;;0.50;0.40;;;14.20;99.90;;;;;;5245742;28;20215;-49
2023/10/14 06:20:53;;;;;;;6.03;0.50;;;14.20;99.90;;;;;;5218823;28;20178;-49
2023/10/14 06:23:27;;;;;;;0.63;0.60;;;14.20;99.90;;;;;;5242302;28;20170;-50
2023/10/14 06:25:58;;;;;;;0.87;0.50;;;14.10;99.90;;;;;;5227825;28;20569;-50
2023/10/14 06:28:29;;;;;;;0.57;0.57;;;14.00;99.90;;;;;;5227416;28;20432;-49
2023/10/14 06:31:00;;;;;;;2.30;0.67;;;13.90;99.90;;;;;;5244472;28;20465;-49
2023/10/14 06:33:30;;;;;;;0.57;0.57;;;13.80;99.90;;;;;;5243907;28;20186;-49
2023/10/14 06:36:03;;;;;;;0.80;0.60;;;13.80;99.90;;;;;;5228951;28;20674;-49
2023/10/14 06:38:37;;;;;;;0.53;0.53;;;13.70;99.90;;;;;;5227412;28;20205;-49
2023/10/14 06:41:11;;;;;;;0.93;0.73;;;13.60;99.90;;;;;;5227025;28;20433;-49
2023/10/14 06:43:55;;;;;;;0.80;0.73;;;13.70;99.90;;;;;;5226412;28;20527;-50
2023/10/14 06:46:26;;;;;;;1.77;0.70;;;13.80;99.90;;;;;;5220930;28;20541;-49
2023/10/14 06:48:58;;;;;;;4.03;0.80;;;13.80;99.90;;;;;;5204900;28;22641;-50
2023/10/14 06:51:29;;;;;;;3.13;0.60;;;13.90;99.90;;;;;;5237499;28;20517;-50
2023/10/14 06:53:59;;;;;;;0.70;0.40;;;13.90;99.90;;;;;;5245447;28;20440;-52
2023/10/14 06:56:30;;;;;;;2.97;0.80;;;13.80;99.90;;;;;;5244097;28;20346;-50
2023/10/14 06:59:01;;;;;;;3.40;0.93;;;13.80;99.90;;;;;;5246311;28;20179;-51
2023/10/14 07:01:33;;;;;;;1.57;0.93;;;13.80;99.90;;;;;;5226830;28;20635;-50
2023/10/14 07:04:04;;;;;;;0.70;0.60;;;13.90;99.90;;;;;;5228284;28;20220;-50
2023/10/14 07:06:37;;;;;;;0.50;0.50;;;14.00;99.90;;;;;;5245549;28;20499;-51
2023/10/14 07:09:17;;;;;;;1.70;0.83;;;13.90;99.90;;;;;;5219314;28;20550;-50
2023/10/14 07:11:48;;;;;;;1.20;1.10;;;14.00;99.90;;;;;;5239721;28;20472;-50
2023/10/14 07:14:18;;;;;;;1.70;1.00;;;14.00;99.90;;;;;;5241574;28;20436;-49
2023/10/14 07:16:50;;;;;;;1.90;1.00;;;14.00;99.90;;;;;;5227880;28;20255;-50
2023/10/14 07:19:22;;;;;;;0.90;0.90;;;14.00;99.90;;;;;;5244745;28;20183;-50
2023/10/14 07:21:53;;;;;;;2.67;0.70;;;14.00;99.90;;;;;;5226446;28;20437;-48
2023/10/14 07:24:24;;;;;;;1.73;1.00;;;14.10;99.90;;;;;;5245390;28;20443;-50
2023/10/14 07:26:57;;;;;;;0.80;0.80;;;14.20;99.90;;;;;;5242583;28;20285;-50
2023/10/14 07:29:28;;;;;;;7.00;0.90;;;14.10;99.90;;;;;;5245729;28;20232;-50
2023/10/14 07:31:58;;;;;;;1.93;1.07;;;14.10;99.90;;;;;;5228552;28;20984;-49
2023/10/14 07:34:29;;;;;;;2.43;0.80;;;14.20;99.90;;;;;;5227462;28;20178;-51
2023/10/14 07:37:00;;;;;;;2.40;1.13;;;14.30;99.90;;;;;;5227149;28;20373;-51
2023/10/14 07:39:32;;;;;;;1.53;1.20;;;14.30;99.90;;;;;;5225925;28;20236;-50
2023/10/14 07:42:09;;;;;;;0.70;0.70;;;14.30;99.90;;;;;;5244553;28;20186;-51
2023/10/14 07:44:40;;;;;;;2.00;0.80;;;14.20;99.90;;;;;;5221901;28;21058;-51
2023/10/14 07:47:12;;;;;;;4.43;0.90;;;14.20;99.90;;;;;;5225857;28;20490;-50
2023/10/14 07:49:44;;;;;;;2.93;0.90;;;14.20;99.90;;;;;;5242625;28;20182;-51
2023/10/14 07:52:15;;;;;;;2.60;0.90;;;14.20;99.90;;;;;;5240565;28;20466;-48
2023/10/14 07:54:46;;;;;;;0.63;0.63;;;14.20;99.90;;;;;;5225466;28;20429;-51
2023/10/14 07:57:17;;;;;;;3.57;1.80;;;14.50;99.90;;;;;;5224381;28;20681;-50
2023/10/14 07:59:50;;;;;;;3.13;1.10;;;14.50;99.90;;;;;;5224037;28;20178;-49
2023/10/14 08:02:21;;;;;;;0.90;0.90;;;14.70;99.90;;;;;;5216702;28;20453;-50
2023/10/14 08:04:53;;;;;;;2.77;1.33;;;14.70;99.90;;;;;;5223555;28;20436;-51
2023/10/14 08:07:27;;;;;;;2.33;0.80;;;14.70;99.90;;;;;;5227894;28;20202;-50
2023/10/14 08:10:06;;;;;;;5.63;0.97;;;14.80;99.90;;;;;;5221248;28;20956;-51
2023/10/14 08:12:37;;;;;;;3.30;1.17;;;14.90;99.90;;;;;;5227204;28;20533;-48
2023/10/14 08:15:11;;;;;;;3.40;1.00;;;14.90;99.90;;;;;;5239815;28;20436;-47
2023/10/14 08:17:41;;;;;;;4.63;0.83;;;15.00;99.90;;;;;;5227114;28;20327;-49
2023/10/14 08:20:13;;;;;;;3.77;0.90;;;15.20;99.90;;;;;;5242853;28;20554;-48
2023/10/14 08:22:47;;;;;;;4.33;1.47;;;15.30;99.90;;;;;;5243041;28;20184;-48
2023/10/14 08:25:18;;;;;;;1.90;1.27;;;15.50;99.90;;;;;;5247722;28;20510;-48
2023/10/14 08:27:50;;;;;;;2.50;1.13;;;15.50;99.90;;;;;;5240970;28;20432;-48
2023/10/14 08:30:24;;;;;;;4.27;1.33;;;15.70;99.90;;;;;;5225763;28;20433;-48
2023/10/14 08:32:55;;;;;;;1.97;1.13;;;16.00;99.90;;;;;;5226203;28;20452;-49
2023/10/14 08:35:27;;;;;;;7.90;1.17;;;16.00;99.90;;;;;;5245445;28;20440;-48
2023/10/14 08:37:58;;;;;;;9.03;1.53;;;16.30;99.90;;;;;;5241347;28;20204;-47
2023/10/14 08:40:31;;;;;;;1.60;1.07;;;16.50;99.90;;;;;;5227234;28;20412;-49
2023/10/14 08:43:05;;;;;;;2.20;1.17;;;16.80;99.90;;;;;;5225174;28;20205;-50
2023/10/14 08:45:39;;;;;;;6.43;2.00;;;16.80;99.90;;;;;;5245953;28;20952;-48
2023/10/14 08:48:11;;;;;;;3.43;1.93;;;16.70;99.90;;;;;;5211184;28;20809;-47
2023/10/14 08:50:42;;;;;;;8.90;1.50;;;16.50;99.90;;;;;;5244765;28;20439;-46
2023/10/14 08:53:14;;;;;;;13.93;1.50;;;16.50;99.90;;;;;;5247768;28;20773;-47
2023/10/14 08:55:46;;;;;;;6.27;1.90;;;16.60;99.90;;;;;;5244211;28;20955;-47
2023/10/14 08:58:17;;;;;;;4.47;1.77;;;16.60;99.90;;;;;;5244506;28;20963;-48
2023/10/14 09:00:51;;;;;;;6.07;1.70;;;16.70;99.90;;;;;;5243545;28;20465;-48
2023/10/14 09:03:24;;;;;;;2.47;1.40;;;16.70;99.90;;;;;;5225538;28;20461;-49
2023/10/14 09:05:57;;;;;;;3.00;1.60;;;16.60;99.90;;;;;;5227221;28;20456;-48
2023/10/14 09:08:34;;;;;;;3.80;1.60;;;16.40;99.90;;;;;;5223879;28;20444;-48
2023/10/14 09:11:05;;;;;;;2.90;1.43;;;16.40;99.90;;;;;;5224089;28;20466;-50
2023/10/14 09:13:39;;;;;;;4.10;1.77;;;16.30;99.90;;;;;;5243663;28;20425;-48
2023/10/14 09:16:24;;;;;;;4.60;1.87;;;16.40;99.90;;;;;;5241388;28;20622;-50
2023/10/14 09:18:59;;;;;;;3.40;1.83;;;16.40;99.90;;;;;;5247495;28;20932;-50
2023/10/14 09:21:31;;;;;;;6.77;1.70;;;16.50;99.90;;;;;;5249029;28;20672;-47
2023/10/14 09:24:08;;;;;;;8.97;1.93;;;16.40;99.90;;;;;;5213256;28;20796;-48
2023/10/14 09:26:43;;;;;;;13.53;2.10;;;16.00;99.90;;;;;;5246133;28;20979;-49
2023/10/14 09:29:14;;;;;;;14.40;2.17;;;15.80;99.90;;;;;;5244989;28;20787;-48
2023/10/14 09:31:47;;;;;;;5.33;1.93;;;16.00;99.90;;;;;;5229666;28;20448;-47
2023/10/14 09:34:25;;;;;;;7.40;2.00;;;16.00;99.90;;;;;;5228566;28;20752;-49
2023/10/14 09:36:56;;;;;;;6.37;1.33;;;15.90;99.90;;;;;;5229143;28;20516;-48
2023/10/14 09:39:28;;;;;;;3.33;2.00;;;15.80;99.90;;;;;;5245411;28;20437;-49
2023/10/14 09:41:59;;;;;;;4.63;1.60;;;15.70;99.90;;;;;;5247316;28;20780;-48
2023/10/14 09:44:31;;;;;;;3.97;2.17;;;15.70;99.90;;;;;;5246532;28;20664;-49
2023/10/14 09:47:03;;;;;;;8.90;1.70;;;15.70;99.90;;;;;;5240895;28;20545;-46
2023/10/14 09:49:37;;;;;;;3.83;1.40;;;15.70;99.90;;;;;;5244445;28;20437;-48
2023/10/14 09:52:14;;;;;;;11.57;2.13;;;15.70;99.90;;;;;;5244705;28;20472;-50
2023/10/14 09:54:49;;;;;;;10.53;2.50;;;15.70;99.90;;;;;;5245318;28;20813;-50
2023/10/14 09:57:21;;;;;;;9.63;2.10;;;15.90;99.90;;;;;;5245432;28;20559;-48
2023/10/14 09:59:53;;;;;;;1.80;1.47;;;16.00;99.90;;;;;;5242663;28;20447;-49
2023/10/14 10:02:24;;;;;;;2.60;1.77;;;16.10;99.90;;;;;;5245214;28;20595;-49
2023/10/14 10:04:56;;;;;;;3.40;1.77;;;16.30;99.90;;;;;;5244614;28;20533;-48
2023/10/14 10:07:33;;;;;;;8.80;1.50;;;16.40;99.90;;;;;;5244615;28;20460;-48
2023/10/14 10:10:13;;;;;;;6.37;1.80;;;16.40;99.90;;;;;;5218283;28;20449;-48
2023/10/14 10:12:52;;;;;;;8.17;1.60;;;16.50;99.90;;;;;;5240666;28;20491;-50
2023/10/14 10:15:24;;;;;;;5.50;2.00;;;16.60;99.90;;;;;;5243502;28;20891;-47
2023/10/14 10:17:56;;;;;;;3.03;2.20;;;16.60;99.90;;;;;;5242399;28;20781;-48
2023/10/14 10:20:29;;;;;;;2.93;1.37;;;16.60;99.90;;;;;;5217033;28;20583;-49
2023/10/14 10:23:01;;;;;;;5.57;1.80;;;16.70;99.90;;;;;;5242291;28;20445;-49
2023/10/14 10:25:35;;;;;;;6.60;1.60;;;16.80;99.90;;;;;;5241522;28;20562;-48
2023/10/14 10:28:26;;;;;;;3.73;1.70;;;16.70;99.40;;;;;;5244885;28;20440;-48
2023/10/14 10:31:07;;;;;;;4.70;1.87;;;16.60;99.10;;;;;;5226589;28;20463;-49
2023/10/14 10:33:59;;;;;;;4.50;1.80;;;16.50;99.20;;;;;;5225971;28;20441;-48
2023/10/14 10:36:32;;;;;;;9.53;1.70;;;16.50;99.10;;;;;;5225561;28;21041;-48
2023/10/14 10:39:06;;;;;;;4.10;1.77;;;16.70;98.80;;;;;;5224973;28;20968;-48
2023/10/14 10:41:37;;;;;;;6.50;2.07;;;16.60;98.20;;;;;;5224299;28;20451;-47
2023/10/14 10:44:13;;;;;;;3.23;1.80;;;16.60;98.40;;;;;;5224570;28;20512;-47
2023/10/14 10:46:50;;;;;;;3.20;1.63;;;16.50;97.80;;;;;;5214216;28;20448;-49
2023/10/14 10:49:49;;;;;;;14.67;2.00;;;16.50;97.90;;;;;;5229504;28;20428;-50
2023/10/14 10:52:21;;;;;;;8.63;1.70;;;16.50;97.80;;;;;;5242073;28;20504;-48
2023/10/14 10:54:52;;;;;;;7.20;2.17;;;16.60;97.70;;;;;;5242974;28;20436;-48
2023/10/14 10:57:25;;;;;;;6.90;2.80;;;16.70;98.10;;;;;;5242390;28;20448;-49
2023/10/14 10:59:55;;;;;;;2.97;1.47;;;16.90;97.70;;;;;;5244596;28;20922;-49
2023/10/14 11:02:29;;;;;;;3.60;1.50;;;16.90;96.40;;;;;;5223132;28;20476;-50
2023/10/14 11:05:00;;;;;;;3.80;1.70;;;17.10;96.40;;;;;;5225047;28;20186;-49
2023/10/14 11:07:32;;;;;;;10.23;2.47;;;17.10;95.50;;;;;;5224162;28;20552;-48
2023/10/14 11:10:03;;;;;;;7.57;2.53;;;17.20;95.50;;;;;;5242651;28;20236;-49
2023/10/14 11:12:37;;;;;;;5.37;2.00;;;17.30;95.40;;;;;;5240019;28;20468;-48
2023/10/14 11:15:18;;;;;;;5.17;1.80;;;17.50;94.30;;;;;;5225445;28;20473;-48
2023/10/14 11:17:56;;;;;;;2.73;1.40;;;17.60;93.80;;;;;;5224559;28;20440;-47
2023/10/14 11:20:36;;;;;;;3.37;1.87;;;17.60;92.90;;;;;;5244301;28;20791;-51
2023/10/14 11:23:11;;;;;;;4.33;1.83;;;17.50;92.20;;;;;;5223876;28;20428;-49
2023/10/14 11:25:45;;;;;;;2.80;2.00;;;17.10;91.60;;;;;;5244068;28;20551;-49
2023/10/14 11:28:16;;;;;;;7.43;2.10;;;16.80;92.00;;;;;;5224627;28;20498;-49
2023/10/14 11:30:47;;;;;;;5.40;2.63;;;16.60;90.60;;;;;;5243292;28;20831;-50
2023/10/14 11:33:19;;;;;;;9.03;2.57;;;16.40;88.70;;;;;;5225097;28;20440;-48
2023/10/14 11:35:50;;;;;;;7.20;2.57;;;16.30;88.90;;;;;;5236001;28;20893;-50
2023/10/14 11:38:25;;;;;;;13.67;2.30;;;16.10;89.20;;;;;;5243519;28;20429;-50
2023/10/14 11:41:02;;;;;;;12.20;2.57;;;15.90;90.40;;;;;;5239157;28;20178;-48
2023/10/14 11:43:32;;;;;;;13.30;2.23;;;15.90;90.90;;;;;;5220071;28;20960;-49
2023/10/14 11:46:03;;;;;;;10.97;1.53;;;15.70;91.50;;;;;;5223981;28;20468;-51
2023/10/14 11:48:34;;;;;;;2.50;1.23;;;15.70;91.30;;;;;;5222850;28;20178;-48
2023/10/14 11:51:11;;;;;;;4.73;2.00;;;15.80;91.70;;;;;;5240464;28;20207;-49
2023/10/14 11:53:44;;;;;;;6.67;2.47;;;16.10;91.40;;;;;;5225951;28;20204;-48
2023/10/14 11:56:14;;;;;;;5.10;1.73;;;16.30;91.00;;;;;;5222593;28;20518;-49
2023/10/14 11:58:45;;;;;;;5.70;2.13;;;16.50;88.40;;;;;;5222077;28;20440;-48
2023/10/14 12:01:17;;;;;;;4.90;1.70;;;16.50;82.80;;;;;;5207635;28;20273;-49
2023/10/14 12:03:49;;;;;;;2.50;2.23;;;16.60;83.80;;;;;;5243011;28;20498;-48
2023/10/14 12:06:19;;;;;;;3.40;1.70;;;16.60;83.50;;;;;;5223452;28;20464;-49
2023/10/14 12:08:52;;;;;;;11.57;2.90;;;16.60;83.60;;;;;;5239464;28;20428;-47
2023/10/14 12:11:27;;;;;;;14.33;2.50;;;16.60;84.30;;;;;;5247985;28;20623;-48
2023/10/14 12:13:57;;;;;;;6.20;1.90;;;16.60;84.50;;;;;;5240879;28;20452;-49
2023/10/14 12:16:28;;;;;;;11.57;5.33;;;16.50;83.10;;;;;;5242161;28;20535;-49
2023/10/14 12:18:59;;;;;;;3.53;1.67;;;16.40;82.70;;;;;;5224284;28;20182;-49
2023/10/14 12:21:29;;;;;;;15.13;2.37;;;16.30;82.20;;;;;;5207452;28;20183;-50
2023/10/14 12:24:03;;;;;;;8.03;2.33;;;16.30;81.20;;;;;;5235004;28;20197;-52
2023/10/14 12:26:36;;;;;;;6.83;1.97;;;16.30;82.80;;;;;;5225876;28;20202;-51
2023/10/14 12:29:09;;;;;;;10.93;2.40;;;16.00;83.20;;;;;;5225257;28;20535;-51
2023/10/14 12:31:44;;;;;;;9.23;3.00;;;15.80;83.20;;;;;;5243343;28;20479;-52
2023/10/14 12:34:15;;;;;;;9.33;2.20;;;15.80;85.00;;;;;;5244440;28;20459;-50
2023/10/14 12:36:46;;;;;;;12.03;2.50;;;15.80;86.10;;;;;;5222283;28;20486;-50
2023/10/14 12:39:20;;;;;;;7.17;1.57;;;15.70;87.80;;;;;;5223873;28;20968;-49
2023/10/14 12:41:53;;;;;;;2.47;1.70;;;15.80;87.80;;;;;;5243533;28;20213;-50
2023/10/14 12:44:23;;;;;;;8.33;2.23;;;15.80;88.50;;;;;;5223191;28;20437;-49
2023/10/14 12:46:54;;;;;;;6.90;2.57;;;15.80;88.00;;;;;;5244199;28;20510;-49
2023/10/14 12:49:26;;;;;;;23.57;2.60;;;15.70;87.70;;;;;;5223962;28;20182;-50
2023/10/14 12:52:05;;;;;;;11.87;2.77;;;15.80;87.70;;;;;;5228637;28;20987;-50
2023/10/14 12:54:38;;;;;;;10.20;4.97;;;15.90;86.10;;;;;;5247178;28;21054;-50
2023/10/14 12:57:08;;;;;;;6.53;2.93;;;16.20;85.20;;;;;;5245549;28;20510;-52
2023/10/14 12:59:42;;;;;;;11.10;2.50;;;16.40;85.20;;;;;;5228163;28;20429;-50
2023/10/14 13:02:17;;;;;;;5.90;2.67;;;16.30;84.80;;;;;;5249062;28;20213;-51
2023/10/14 13:04:47;;;;;;;9.87;2.67;;;16.40;85.30;;;;;;5246063;28;20436;-49
2023/10/14 13:07:21;;;;;;;8.33;2.10;;;16.40;85.30;;;;;;5228778;28;20876;-50
2023/10/14 13:09:52;;;;;;;7.70;2.07;;;16.40;83.30;;;;;;5228832;28;20181;-49
2023/10/14 13:12:23;;;;;;;10.30;2.67;;;16.40;82.10;;;;;;5247984;28;20551;-49
2023/10/14 13:14:53;;;;;;;2.63;1.67;;;16.40;82.20;;;;;;5235638;28;20570;-49
2023/10/14 13:17:24;;;;;;;4.93;1.83;;;16.30;83.50;;;;;;5251093;28;20206;-50
2023/10/14 13:19:55;;;;;;;6.90;2.13;;;16.40;84.00;;;;;;5227833;28;20197;-50
2023/10/14 13:22:25;;;;;;;4.53;1.73;;;16.40;83.10;;;;;;5228545;28;20186;-50
2023/10/14 13:24:56;;;;;;;9.53;1.90;;;16.50;82.50;;;;;;5223108;28;20702;-51
2023/10/14 13:27:27;;;;;;;4.70;2.07;;;16.50;79.50;;;;;;5233037;28;20233;-50
2023/10/14 13:29:57;;;;;;;7.10;2.57;;;16.50;79.40;;;;;;5221564;28;20530;-49
2023/10/14 13:32:28;;;;;;;10.50;2.23;;;16.50;80.60;;;;;;5242380;28;20202;-49
2023/10/14 13:34:59;;;;;;;8.77;2.07;;;16.40;77.00;;;;;;5229419;28;20619;-51
2023/10/14 13:37:29;;;;;;;8.40;2.20;;;16.30;77.80;;;;;;5247019;28;20600;-50
2023/10/14 13:40:00;;;;;;;5.17;1.77;;;16.20;79.10;;;;;;5246240;28;20214;-49
2023/10/14 13:42:31;;;;;;;6.23;2.40;;;16.20;79.10;;;;;;5241057;28;20265;-51